< < Back
Terminal Aerodrome Forecast


Current Version              Previous Versions:   1  2  3  4  5  6  7  8  9  

Terminal Aerodrome Forecast

506
FTUS44 KMOB 200500
TAFPNS
TAF
KPNS 200526Z 2006/2106 04007KT P6SM SKC
     FM201500 03008KT P6SM FEW040 SCT250=

Latest METAR

128
SAUS70 KWBC 200600 RRH
MTRPNS
METAR KPNS 200553Z AUTO 05004KT 10SM CLR 18/12 A3011 RMK AO2 SLP197
T01780122 10239 20178 402610133 55000


USA.gov is the U.S. government's official web portal to all federal, state and local government web resources and services.